sensor_id;sensor_type;location;lat;lon;timestamp;P1;durP1;ratioP1;P2;durP2;ratioP2
7444;SDS011;3764;48.126;11.594;2024-03-07T00:01:14;14.98;;;11.13;;
7444;SDS011;3764;48.126;11.594;2024-03-07T00:03:42;13.77;;;9.18;;
7444;SDS011;3764;48.126;11.594;2024-03-07T00:06:09;13.52;;;9.77;;
7444;SDS011;3764;48.126;11.594;2024-03-07T00:08:36;13.70;;;10.35;;
7444;SDS011;3764;48.126;11.594;2024-03-07T00:11:04;14.45;;;9.98;;
7444;SDS011;3764;48.126;11.594;2024-03-07T00:13:33;11.82;;;8.82;;
7444;SDS011;3764;48.126;11.594;2024-03-07T00:16:01;11.88;;;8.95;;
7444;SDS011;3764;48.126;11.594;2024-03-07T00:18:29;13.15;;;11.00;;
7444;SDS011;3764;48.126;11.594;2024-03-07T00:20:56;12.30;;;8.85;;
7444;SDS011;3764;48.126;11.594;2024-03-07T00:23:23;12.63;;;9.40;;
7444;SDS011;3764;48.126;11.594;2024-03-07T00:25:51;17.98;;;10.35;;
7444;SDS011;3764;48.126;11.594;2024-03-07T00:28:22;15.30;;;10.82;;
7444;SDS011;3764;48.126;11.594;2024-03-07T00:30:53;18.25;;;11.15;;
7444;SDS011;3764;48.126;11.594;2024-03-07T00:33:21;15.23;;;11.98;;
7444;SDS011;3764;48.126;11.594;2024-03-07T00:35:48;18.27;;;12.68;;
7444;SDS011;3764;48.126;11.594;2024-03-07T00:38:15;19.65;;;11.88;;
7444;SDS011;3764;48.126;11.594;2024-03-07T00:40:43;15.75;;;11.88;;
7444;SDS011;3764;48.126;11.594;2024-03-07T00:43:10;18.08;;;11.73;;
7444;SDS011;3764;48.126;11.594;2024-03-07T00:45:37;19.80;;;12.23;;
7444;SDS011;3764;48.126;11.594;2024-03-07T00:48:06;18.65;;;12.05;;
7444;SDS011;3764;48.126;11.594;2024-03-07T00:50:33;16.27;;;10.35;;
7444;SDS011;3764;48.126;11.594;2024-03-07T00:53:01;19.25;;;11.90;;
7444;SDS011;3764;48.126;11.594;2024-03-07T00:55:28;20.67;;;13.23;;
7444;SDS011;3764;48.126;11.594;2024-03-07T00:57:55;22.30;;;16.15;;
7444;SDS011;3764;48.126;11.594;2024-03-07T01:00:22;21.02;;;13.80;;
7444;SDS011;3764;48.126;11.594;2024-03-07T01:02:50;22.42;;;14.07;;
7444;SDS011;3764;48.126;11.594;2024-03-07T01:05:20;21.63;;;13.35;;
7444;SDS011;3764;48.126;11.594;2024-03-07T01:07:47;19.63;;;13.05;;
7444;SDS011;3764;48.126;11.594;2024-03-07T01:10:14;24.77;;;14.00;;
7444;SDS011;3764;48.126;11.594;2024-03-07T01:12:41;18.85;;;11.68;;
7444;SDS011;3764;48.126;11.594;2024-03-07T01:15:09;21.38;;;11.82;;
7444;SDS011;3764;48.126;11.594;2024-03-07T01:17:36;33.88;;;20.13;;
7444;SDS011;3764;48.126;11.594;2024-03-07T01:20:04;25.60;;;15.65;;
7444;SDS011;3764;48.126;11.594;2024-03-07T01:22:34;24.23;;;15.13;;
7444;SDS011;3764;48.126;11.594;2024-03-07T01:25:01;22.05;;;13.60;;
7444;SDS011;3764;48.126;11.594;2024-03-07T01:27:29;16.65;;;11.65;;
7444;SDS011;3764;48.126;11.594;2024-03-07T01:29:56;17.85;;;11.90;;
7444;SDS011;3764;48.126;11.594;2024-03-07T01:32:23;20.38;;;12.82;;
7444;SDS011;3764;48.126;11.594;2024-03-07T01:34:51;22.85;;;12.85;;
7444;SDS011;3764;48.126;11.594;2024-03-07T01:37:18;19.38;;;13.00;;
7444;SDS011;3764;48.126;11.594;2024-03-07T01:39:46;19.15;;;12.90;;
7444;SDS011;3764;48.126;11.594;2024-03-07T01:42:14;20.25;;;13.52;;
7444;SDS011;3764;48.126;11.594;2024-03-07T01:44:41;21.75;;;13.43;;
7444;SDS011;3764;48.126;11.594;2024-03-07T01:47:09;23.50;;;14.80;;
7444;SDS011;3764;48.126;11.594;2024-03-07T01:49:37;21.80;;;13.68;;
7444;SDS011;3764;48.126;11.594;2024-03-07T01:52:05;24.42;;;15.38;;
7444;SDS011;3764;48.126;11.594;2024-03-07T01:54:33;22.10;;;16.20;;
7444;SDS011;3764;48.126;11.594;2024-03-07T01:57:02;25.88;;;16.15;;
7444;SDS011;3764;48.126;11.594;2024-03-07T01:59:31;25.38;;;15.60;;
7444;SDS011;3764;48.126;11.594;2024-03-07T02:02:00;25.40;;;15.55;;
7444;SDS011;3764;48.126;11.594;2024-03-07T02:04:28;27.48;;;14.98;;
7444;SDS011;3764;48.126;11.594;2024-03-07T02:06:56;27.83;;;15.30;;
7444;SDS011;3764;48.126;11.594;2024-03-07T02:09:23;22.65;;;14.77;;
7444;SDS011;3764;48.126;11.594;2024-03-07T02:11:51;26.45;;;15.40;;
7444;SDS011;3764;48.126;11.594;2024-03-07T02:14:20;25.15;;;13.98;;
7444;SDS011;3764;48.126;11.594;2024-03-07T02:16:47;24.48;;;15.80;;
7444;SDS011;3764;48.126;11.594;2024-03-07T02:19:15;28.15;;;15.93;;
7444;SDS011;3764;48.126;11.594;2024-03-07T02:21:47;23.40;;;14.55;;
7444;SDS011;3764;48.126;11.594;2024-03-07T02:24:14;29.23;;;16.70;;
7444;SDS011;3764;48.126;11.594;2024-03-07T02:26:41;25.42;;;15.88;;
7444;SDS011;3764;48.126;11.594;2024-03-07T02:29:08;25.75;;;16.80;;
7444;SDS011;3764;48.126;11.594;2024-03-07T02:31:36;29.77;;;16.60;;
7444;SDS011;3764;48.126;11.594;2024-03-07T02:34:06;23.77;;;15.85;;
7444;SDS011;3764;48.126;11.594;2024-03-07T02:36:34;25.90;;;15.45;;
7444;SDS011;3764;48.126;11.594;2024-03-07T02:39:02;28.15;;;17.17;;
7444;SDS011;3764;48.126;11.594;2024-03-07T02:41:31;25.88;;;16.70;;
7444;SDS011;3764;48.126;11.594;2024-03-07T02:44:00;27.30;;;17.90;;
7444;SDS011;3764;48.126;11.594;2024-03-07T02:46:28;30.13;;;17.02;;
7444;SDS011;3764;48.126;11.594;2024-03-07T02:48:57;33.65;;;18.55;;
7444;SDS011;3764;48.126;11.594;2024-03-07T02:51:24;28.92;;;19.92;;
7444;SDS011;3764;48.126;11.594;2024-03-07T02:53:51;26.95;;;17.90;;
7444;SDS011;3764;48.126;11.594;2024-03-07T02:56:20;35.90;;;21.00;;
7444;SDS011;3764;48.126;11.594;2024-03-07T02:58:47;37.15;;;22.33;;
7444;SDS011;3764;48.126;11.594;2024-03-07T03:01:14;34.58;;;20.75;;
7444;SDS011;3764;48.126;11.594;2024-03-07T03:03:41;37.63;;;20.70;;
7444;SDS011;3764;48.126;11.594;2024-03-07T03:06:09;33.35;;;22.55;;
7444;SDS011;3764;48.126;11.594;2024-03-07T03:08:36;34.70;;;20.52;;
7444;SDS011;3764;48.126;11.594;2024-03-07T03:11:04;38.70;;;22.55;;
7444;SDS011;3764;48.126;11.594;2024-03-07T03:13:35;36.47;;;23.05;;
7444;SDS011;3764;48.126;11.594;2024-03-07T03:16:04;41.03;;;23.00;;
7444;SDS011;3764;48.126;11.594;2024-03-07T03:18:32;40.90;;;23.85;;
7444;SDS011;3764;48.126;11.594;2024-03-07T03:21:00;38.85;;;21.20;;
7444;SDS011;3764;48.126;11.594;2024-03-07T03:23:27;37.40;;;23.35;;
7444;SDS011;3764;48.126;11.594;2024-03-07T03:25:55;39.53;;;22.60;;
7444;SDS011;3764;48.126;11.594;2024-03-07T03:28:22;42.85;;;25.63;;
7444;SDS011;3764;48.126;11.594;2024-03-07T03:30:51;39.70;;;23.33;;
7444;SDS011;3764;48.126;11.594;2024-03-07T03:33:18;39.67;;;22.60;;
7444;SDS011;3764;48.126;11.594;2024-03-07T03:35:46;43.13;;;24.85;;
7444;SDS011;3764;48.126;11.594;2024-03-07T03:38:14;43.35;;;24.45;;
7444;SDS011;3764;48.126;11.594;2024-03-07T03:40:43;40.83;;;23.95;;
7444;SDS011;3764;48.126;11.594;2024-03-07T03:43:10;42.58;;;24.33;;
7444;SDS011;3764;48.126;11.594;2024-03-07T03:45:38;46.75;;;25.35;;
7444;SDS011;3764;48.126;11.594;2024-03-07T03:48:07;45.38;;;24.75;;
7444;SDS011;3764;48.126;11.594;2024-03-07T03:50:34;44.90;;;27.30;;
7444;SDS011;3764;48.126;11.594;2024-03-07T03:53:01;41.17;;;25.02;;
7444;SDS011;3764;48.126;11.594;2024-03-07T03:55:29;41.38;;;25.42;;
7444;SDS011;3764;48.126;11.594;2024-03-07T03:57:57;41.47;;;25.50;;
7444;SDS011;3764;48.126;11.594;2024-03-07T04:00:24;41.65;;;24.90;;
7444;SDS011;3764;48.126;11.594;2024-03-07T04:02:51;33.08;;;23.35;;
7444;SDS011;3764;48.126;11.594;2024-03-07T04:05:19;40.90;;;25.92;;
7444;SDS011;3764;48.126;11.594;2024-03-07T04:07:47;37.60;;;23.50;;
7444;SDS011;3764;48.126;11.594;2024-03-07T04:10:15;50.67;;;26.00;;
7444;SDS011;3764;48.126;11.594;2024-03-07T04:12:44;41.10;;;25.50;;
7444;SDS011;3764;48.126;11.594;2024-03-07T04:15:11;41.80;;;24.58;;
7444;SDS011;3764;48.126;11.594;2024-03-07T04:17:41;44.50;;;26.38;;
7444;SDS011;3764;48.126;11.594;2024-03-07T04:20:10;45.30;;;28.02;;
7444;SDS011;3764;48.126;11.594;2024-03-07T04:22:40;43.17;;;26.95;;
7444;SDS011;3764;48.126;11.594;2024-03-07T04:25:07;43.15;;;24.98;;
7444;SDS011;3764;48.126;11.594;2024-03-07T04:27:35;42.58;;;27.10;;
7444;SDS011;3764;48.126;11.594;2024-03-07T04:30:06;46.22;;;26.25;;
7444;SDS011;3764;48.126;11.594;2024-03-07T04:32:35;39.92;;;24.30;;
7444;SDS011;3764;48.126;11.594;2024-03-07T04:35:03;44.15;;;25.45;;
7444;SDS011;3764;48.126;11.594;2024-03-07T04:37:33;42.30;;;25.42;;
7444;SDS011;3764;48.126;11.594;2024-03-07T04:40:04;37.58;;;24.98;;
7444;SDS011;3764;48.126;11.594;2024-03-07T04:42:40;46.20;;;28.05;;
7444;SDS011;3764;48.126;11.594;2024-03-07T04:45:09;42.33;;;26.30;;
7444;SDS011;3764;48.126;11.594;2024-03-07T04:47:38;47.50;;;26.88;;
7444;SDS011;3764;48.126;11.594;2024-03-07T04:50:07;40.17;;;24.23;;
7444;SDS011;3764;48.126;11.594;2024-03-07T04:52:36;41.78;;;27.73;;
7444;SDS011;3764;48.126;11.594;2024-03-07T04:55:06;44.05;;;26.27;;
7444;SDS011;3764;48.126;11.594;2024-03-07T04:57:35;45.67;;;27.73;;
7444;SDS011;3764;48.126;11.594;2024-03-07T05:00:04;44.95;;;26.70;;
7444;SDS011;3764;48.126;11.594;2024-03-07T05:02:38;46.00;;;27.73;;
7444;SDS011;3764;48.126;11.594;2024-03-07T05:05:06;42.65;;;28.33;;
7444;SDS011;3764;48.126;11.594;2024-03-07T05:07:33;43.67;;;26.45;;
7444;SDS011;3764;48.126;11.594;2024-03-07T05:10:01;49.17;;;26.25;;
7444;SDS011;3764;48.126;11.594;2024-03-07T05:12:31;43.47;;;26.50;;
7444;SDS011;3764;48.126;11.594;2024-03-07T05:14:58;51.58;;;29.15;;
7444;SDS011;3764;48.126;11.594;2024-03-07T05:17:25;41.60;;;26.70;;
7444;SDS011;3764;48.126;11.594;2024-03-07T05:19:54;45.22;;;28.00;;
7444;SDS011;3764;48.126;11.594;2024-03-07T05:22:21;48.67;;;27.08;;
7444;SDS011;3764;48.126;11.594;2024-03-07T05:24:50;44.45;;;26.67;;
7444;SDS011;3764;48.126;11.594;2024-03-07T05:27:18;46.75;;;27.17;;
7444;SDS011;3764;48.126;11.594;2024-03-07T05:29:47;42.90;;;26.83;;
7444;SDS011;3764;48.126;11.594;2024-03-07T05:32:19;43.33;;;26.92;;
7444;SDS011;3764;48.126;11.594;2024-03-07T05:34:47;47.20;;;28.00;;
7444;SDS011;3764;48.126;11.594;2024-03-07T05:37:15;50.22;;;28.08;;
7444;SDS011;3764;48.126;11.594;2024-03-07T05:39:42;47.25;;;28.98;;
7444;SDS011;3764;48.126;11.594;2024-03-07T05:42:10;51.92;;;30.45;;
7444;SDS011;3764;48.126;11.594;2024-03-07T05:44:39;41.72;;;26.52;;
7444;SDS011;3764;48.126;11.594;2024-03-07T05:47:08;43.90;;;26.83;;
7444;SDS011;3764;48.126;11.594;2024-03-07T05:49:38;46.90;;;28.08;;
7444;SDS011;3764;48.126;11.594;2024-03-07T05:52:06;49.00;;;29.55;;
7444;SDS011;3764;48.126;11.594;2024-03-07T05:54:33;52.45;;;27.88;;
7444;SDS011;3764;48.126;11.594;2024-03-07T05:57:01;56.78;;;35.78;;
7444;SDS011;3764;48.126;11.594;2024-03-07T05:59:32;56.83;;;30.80;;
7444;SDS011;3764;48.126;11.594;2024-03-07T06:01:59;47.88;;;28.95;;
7444;SDS011;3764;48.126;11.594;2024-03-07T06:04:28;50.92;;;34.50;;
7444;SDS011;3764;48.126;11.594;2024-03-07T06:06:57;56.28;;;31.30;;
7444;SDS011;3764;48.126;11.594;2024-03-07T06:09:25;45.40;;;28.50;;
7444;SDS011;3764;48.126;11.594;2024-03-07T06:11:52;49.85;;;30.30;;
7444;SDS011;3764;48.126;11.594;2024-03-07T06:14:19;47.60;;;30.05;;
7444;SDS011;3764;48.126;11.594;2024-03-07T06:16:48;51.85;;;29.67;;
7444;SDS011;3764;48.126;11.594;2024-03-07T06:19:15;53.70;;;27.67;;
7444;SDS011;3764;48.126;11.594;2024-03-07T06:21:43;42.30;;;26.17;;
7444;SDS011;3764;48.126;11.594;2024-03-07T06:24:11;46.72;;;28.17;;
7444;SDS011;3764;48.126;11.594;2024-03-07T06:26:40;51.88;;;29.10;;
7444;SDS011;3764;48.126;11.594;2024-03-07T06:29:24;45.40;;;27.58;;
7444;SDS011;3764;48.126;11.594;2024-03-07T06:31:52;51.75;;;28.77;;
7444;SDS011;3764;48.126;11.594;2024-03-07T06:34:20;49.40;;;30.05;;
7444;SDS011;3764;48.126;11.594;2024-03-07T06:36:52;49.95;;;31.77;;
7444;SDS011;3764;48.126;11.594;2024-03-07T06:39:20;49.60;;;28.63;;
7444;SDS011;3764;48.126;11.594;2024-03-07T06:41:48;48.22;;;28.80;;
7444;SDS011;3764;48.126;11.594;2024-03-07T06:44:15;58.30;;;29.10;;
7444;SDS011;3764;48.126;11.594;2024-03-07T06:46:48;44.30;;;28.42;;
7444;SDS011;3764;48.126;11.594;2024-03-07T06:49:15;48.55;;;29.17;;
7444;SDS011;3764;48.126;11.594;2024-03-07T06:51:43;51.38;;;29.90;;
7444;SDS011;3764;48.126;11.594;2024-03-07T06:54:12;61.63;;;29.33;;
7444;SDS011;3764;48.126;11.594;2024-03-07T06:56:39;49.45;;;29.27;;
7444;SDS011;3764;48.126;11.594;2024-03-07T06:59:08;52.85;;;29.33;;
7444;SDS011;3764;48.126;11.594;2024-03-07T07:01:35;47.00;;;28.80;;
7444;SDS011;3764;48.126;11.594;2024-03-07T07:04:03;51.90;;;30.00;;
7444;SDS011;3764;48.126;11.594;2024-03-07T07:06:33;47.33;;;28.63;;
7444;SDS011;3764;48.126;11.594;2024-03-07T07:09:01;51.53;;;28.45;;
7444;SDS011;3764;48.126;11.594;2024-03-07T07:11:32;46.67;;;27.13;;
7444;SDS011;3764;48.126;11.594;2024-03-07T07:13:59;53.38;;;28.50;;
7444;SDS011;3764;48.126;11.594;2024-03-07T07:16:27;47.30;;;28.05;;
7444;SDS011;3764;48.126;11.594;2024-03-07T07:18:56;43.92;;;27.25;;
7444;SDS011;3764;48.126;11.594;2024-03-07T07:21:23;59.70;;;29.23;;
7444;SDS011;3764;48.126;11.594;2024-03-07T07:23:51;53.25;;;30.45;;
7444;SDS011;3764;48.126;11.594;2024-03-07T07:26:18;48.63;;;27.98;;
7444;SDS011;3764;48.126;11.594;2024-03-07T07:28:46;50.75;;;30.02;;
7444;SDS011;3764;48.126;11.594;2024-03-07T07:31:14;53.08;;;27.77;;
7444;SDS011;3764;48.126;11.594;2024-03-07T07:33:41;52.67;;;28.95;;
7444;SDS011;3764;48.126;11.594;2024-03-07T07:36:08;48.33;;;29.10;;
7444;SDS011;3764;48.126;11.594;2024-03-07T07:38:35;53.65;;;30.27;;
7444;SDS011;3764;48.126;11.594;2024-03-07T07:41:03;52.63;;;29.05;;
7444;SDS011;3764;48.126;11.594;2024-03-07T07:43:32;47.95;;;28.35;;
7444;SDS011;3764;48.126;11.594;2024-03-07T07:46:00;52.25;;;27.85;;
7444;SDS011;3764;48.126;11.594;2024-03-07T07:48:27;50.42;;;28.40;;
7444;SDS011;3764;48.126;11.594;2024-03-07T07:50:54;44.67;;;27.10;;
7444;SDS011;3764;48.126;11.594;2024-03-07T07:53:22;56.45;;;30.65;;
7444;SDS011;3764;48.126;11.594;2024-03-07T07:55:49;47.00;;;29.73;;
7444;SDS011;3764;48.126;11.594;2024-03-07T07:58:16;52.47;;;29.70;;
7444;SDS011;3764;48.126;11.594;2024-03-07T08:00:43;41.22;;;27.35;;
7444;SDS011;3764;48.126;11.594;2024-03-07T08:03:12;46.60;;;27.35;;
7444;SDS011;3764;48.126;11.594;2024-03-07T08:05:40;52.78;;;28.65;;
7444;SDS011;3764;48.126;11.594;2024-03-07T08:08:08;54.90;;;28.90;;
7444;SDS011;3764;48.126;11.594;2024-03-07T08:10:38;48.03;;;27.55;;
7444;SDS011;3764;48.126;11.594;2024-03-07T08:13:06;50.40;;;29.95;;
7444;SDS011;3764;48.126;11.594;2024-03-07T08:15:35;57.17;;;28.98;;
7444;SDS011;3764;48.126;11.594;2024-03-07T08:18:03;53.35;;;28.00;;
7444;SDS011;3764;48.126;11.594;2024-03-07T08:20:35;56.33;;;29.83;;
7444;SDS011;3764;48.126;11.594;2024-03-07T08:23:02;54.17;;;30.55;;
7444;SDS011;3764;48.126;11.594;2024-03-07T08:25:30;48.03;;;28.80;;
7444;SDS011;3764;48.126;11.594;2024-03-07T08:27:57;54.38;;;31.08;;
7444;SDS011;3764;48.126;11.594;2024-03-07T08:30:25;51.65;;;29.77;;
7444;SDS011;3764;48.126;11.594;2024-03-07T08:32:54;54.63;;;28.23;;
7444;SDS011;3764;48.126;11.594;2024-03-07T08:35:22;48.35;;;29.77;;
7444;SDS011;3764;48.126;11.594;2024-03-07T08:37:51;54.58;;;33.08;;
7444;SDS011;3764;48.126;11.594;2024-03-07T08:40:19;49.40;;;29.48;;
7444;SDS011;3764;48.126;11.594;2024-03-07T08:42:48;56.22;;;29.70;;
7444;SDS011;3764;48.126;11.594;2024-03-07T08:45:16;60.90;;;30.30;;
7444;SDS011;3764;48.126;11.594;2024-03-07T08:47:44;52.83;;;31.23;;
7444;SDS011;3764;48.126;11.594;2024-03-07T08:50:12;55.85;;;30.60;;
7444;SDS011;3764;48.126;11.594;2024-03-07T08:52:40;54.30;;;32.03;;
7444;SDS011;3764;48.126;11.594;2024-03-07T08:55:12;51.08;;;28.58;;
7444;SDS011;3764;48.126;11.594;2024-03-07T08:57:42;50.67;;;31.30;;
7444;SDS011;3764;48.126;11.594;2024-03-07T09:00:11;52.67;;;30.70;;
7444;SDS011;3764;48.126;11.594;2024-03-07T09:02:47;50.10;;;28.08;;
7444;SDS011;3764;48.126;11.594;2024-03-07T09:05:17;58.42;;;30.50;;
7444;SDS011;3764;48.126;11.594;2024-03-07T09:07:44;48.70;;;30.25;;
7444;SDS011;3764;48.126;11.594;2024-03-07T09:10:13;49.13;;;29.77;;
7444;SDS011;3764;48.126;11.594;2024-03-07T09:12:41;50.22;;;29.85;;
7444;SDS011;3764;48.126;11.594;2024-03-07T09:15:09;50.10;;;27.80;;
7444;SDS011;3764;48.126;11.594;2024-03-07T09:17:37;52.67;;;29.00;;
7444;SDS011;3764;48.126;11.594;2024-03-07T09:20:04;50.50;;;29.50;;
7444;SDS011;3764;48.126;11.594;2024-03-07T09:22:33;48.83;;;29.13;;
7444;SDS011;3764;48.126;11.594;2024-03-07T09:25:01;50.20;;;28.98;;
7444;SDS011;3764;48.126;11.594;2024-03-07T09:27:29;48.38;;;27.63;;
7444;SDS011;3764;48.126;11.594;2024-03-07T09:29:56;52.40;;;28.50;;
7444;SDS011;3764;48.126;11.594;2024-03-07T09:32:24;48.00;;;28.02;;
7444;SDS011;3764;48.126;11.594;2024-03-07T09:34:53;47.22;;;26.98;;
7444;SDS011;3764;48.126;11.594;2024-03-07T09:37:20;46.55;;;27.00;;
7444;SDS011;3764;48.126;11.594;2024-03-07T09:39:49;41.30;;;26.30;;
7444;SDS011;3764;48.126;11.594;2024-03-07T09:42:17;42.97;;;24.70;;
7444;SDS011;3764;48.126;11.594;2024-03-07T09:44:46;53.05;;;27.55;;
7444;SDS011;3764;48.126;11.594;2024-03-07T09:47:15;46.85;;;28.05;;
7444;SDS011;3764;48.126;11.594;2024-03-07T09:49:43;45.17;;;27.45;;
7444;SDS011;3764;48.126;11.594;2024-03-07T09:52:11;49.42;;;28.67;;
7444;SDS011;3764;48.126;11.594;2024-03-07T09:54:41;46.15;;;26.05;;
7444;SDS011;3764;48.126;11.594;2024-03-07T09:57:12;49.35;;;29.33;;
7444;SDS011;3764;48.126;11.594;2024-03-07T09:59:40;54.38;;;28.23;;
7444;SDS011;3764;48.126;11.594;2024-03-07T10:02:16;56.15;;;30.80;;
7444;SDS011;3764;48.126;11.594;2024-03-07T10:04:48;47.40;;;28.58;;
7444;SDS011;3764;48.126;11.594;2024-03-07T10:07:17;50.78;;;28.17;;
7444;SDS011;3764;48.126;11.594;2024-03-07T10:09:45;47.85;;;26.70;;
7444;SDS011;3764;48.126;11.594;2024-03-07T10:12:14;46.50;;;26.42;;
7444;SDS011;3764;48.126;11.594;2024-03-07T10:14:47;49.55;;;26.85;;
7444;SDS011;3764;48.126;11.594;2024-03-07T10:17:18;44.03;;;25.92;;
7444;SDS011;3764;48.126;11.594;2024-03-07T10:19:46;44.10;;;26.67;;
7444;SDS011;3764;48.126;11.594;2024-03-07T10:22:16;47.17;;;27.20;;
7444;SDS011;3764;48.126;11.594;2024-03-07T10:24:49;51.80;;;27.48;;
7444;SDS011;3764;48.126;11.594;2024-03-07T10:27:17;46.10;;;27.20;;
7444;SDS011;3764;48.126;11.594;2024-03-07T10:29:46;43.53;;;26.42;;
7444;SDS011;3764;48.126;11.594;2024-03-07T10:32:18;44.28;;;27.35;;
7444;SDS011;3764;48.126;11.594;2024-03-07T10:34:49;45.75;;;27.30;;
7444;SDS011;3764;48.126;11.594;2024-03-07T10:37:17;42.50;;;26.33;;
7444;SDS011;3764;48.126;11.594;2024-03-07T10:39:46;48.05;;;27.00;;
7444;SDS011;3764;48.126;11.594;2024-03-07T10:42:16;49.45;;;26.95;;
7444;SDS011;3764;48.126;11.594;2024-03-07T10:44:45;42.58;;;25.88;;
7444;SDS011;3764;48.126;11.594;2024-03-07T10:47:15;41.35;;;25.17;;
7444;SDS011;3764;48.126;11.594;2024-03-07T10:49:48;42.92;;;26.63;;
7444;SDS011;3764;48.126;11.594;2024-03-07T10:52:28;35.60;;;23.10;;
7444;SDS011;3764;48.126;11.594;2024-03-07T10:55:06;41.58;;;22.70;;
7444;SDS011;3764;48.126;11.594;2024-03-07T10:57:45;40.92;;;23.20;;
7444;SDS011;3764;48.126;11.594;2024-03-07T11:00:18;46.05;;;26.17;;
7444;SDS011;3764;48.126;11.594;2024-03-07T11:02:55;42.25;;;25.02;;
7444;SDS011;3764;48.126;11.594;2024-03-07T11:05:26;39.67;;;24.08;;
7444;SDS011;3764;48.126;11.594;2024-03-07T11:07:56;40.08;;;23.63;;
7444;SDS011;3764;48.126;11.594;2024-03-07T11:10:24;40.72;;;22.35;;
7444;SDS011;3764;48.126;11.594;2024-03-07T11:12:53;38.05;;;22.40;;
7444;SDS011;3764;48.126;11.594;2024-03-07T11:15:22;40.20;;;23.10;;
7444;SDS011;3764;48.126;11.594;2024-03-07T11:17:52;36.05;;;21.13;;
7444;SDS011;3764;48.126;11.594;2024-03-07T11:20:21;35.10;;;22.08;;
7444;SDS011;3764;48.126;11.594;2024-03-07T11:22:49;35.33;;;21.50;;
7444;SDS011;3764;48.126;11.594;2024-03-07T11:25:19;37.22;;;22.92;;
7444;SDS011;3764;48.126;11.594;2024-03-07T11:27:55;41.22;;;23.15;;
7444;SDS011;3764;48.126;11.594;2024-03-07T11:30:23;37.40;;;22.58;;
7444;SDS011;3764;48.126;11.594;2024-03-07T11:32:52;35.58;;;22.23;;
7444;SDS011;3764;48.126;11.594;2024-03-07T11:35:20;30.77;;;20.95;;
7444;SDS011;3764;48.126;11.594;2024-03-07T11:37:59;40.47;;;23.70;;
7444;SDS011;3764;48.126;11.594;2024-03-07T11:40:45;35.53;;;22.30;;
7444;SDS011;3764;48.126;11.594;2024-03-07T11:43:17;35.13;;;20.38;;
7444;SDS011;3764;48.126;11.594;2024-03-07T11:45:44;36.22;;;21.70;;
7444;SDS011;3764;48.126;11.594;2024-03-07T11:48:17;41.20;;;22.65;;
7444;SDS011;3764;48.126;11.594;2024-03-07T11:50:46;35.65;;;21.38;;
7444;SDS011;3764;48.126;11.594;2024-03-07T11:53:16;36.05;;;21.83;;
7444;SDS011;3764;48.126;11.594;2024-03-07T11:55:43;39.15;;;22.75;;
7444;SDS011;3764;48.126;11.594;2024-03-07T11:58:11;36.50;;;21.42;;
7444;SDS011;3764;48.126;11.594;2024-03-07T12:00:41;37.75;;;21.05;;
7444;SDS011;3764;48.126;11.594;2024-03-07T12:03:10;36.30;;;20.80;;
7444;SDS011;3764;48.126;11.594;2024-03-07T12:05:39;39.75;;;24.10;;
7444;SDS011;3764;48.126;11.594;2024-03-07T12:08:08;40.13;;;22.67;;
7444;SDS011;3764;48.126;11.594;2024-03-07T12:10:39;37.63;;;21.65;;
7444;SDS011;3764;48.126;11.594;2024-03-07T12:13:09;37.47;;;21.58;;
7444;SDS011;3764;48.126;11.594;2024-03-07T12:15:38;34.88;;;21.25;;
7444;SDS011;3764;48.126;11.594;2024-03-07T12:18:06;36.33;;;21.52;;
7444;SDS011;3764;48.126;11.594;2024-03-07T12:20:36;40.35;;;22.38;;
7444;SDS011;3764;48.126;11.594;2024-03-07T12:23:04;42.15;;;23.65;;
7444;SDS011;3764;48.126;11.594;2024-03-07T12:25:34;40.53;;;22.05;;
7444;SDS011;3764;48.126;11.594;2024-03-07T12:28:04;36.08;;;22.70;;
7444;SDS011;3764;48.126;11.594;2024-03-07T12:30:37;43.25;;;23.65;;
7444;SDS011;3764;48.126;11.594;2024-03-07T12:33:16;41.50;;;23.17;;
7444;SDS011;3764;48.126;11.594;2024-03-07T12:35:44;40.75;;;22.92;;
7444;SDS011;3764;48.126;11.594;2024-03-07T12:38:13;35.33;;;21.85;;
7444;SDS011;3764;48.126;11.594;2024-03-07T12:40:42;39.60;;;21.77;;
7444;SDS011;3764;48.126;11.594;2024-03-07T12:43:16;35.85;;;21.98;;
7444;SDS011;3764;48.126;11.594;2024-03-07T12:45:44;39.38;;;22.60;;
7444;SDS011;3764;48.126;11.594;2024-03-07T12:48:16;37.28;;;22.95;;
7444;SDS011;3764;48.126;11.594;2024-03-07T12:50:45;34.38;;;19.77;;
7444;SDS011;3764;48.126;11.594;2024-03-07T12:53:15;40.78;;;23.08;;
7444;SDS011;3764;48.126;11.594;2024-03-07T12:55:43;37.40;;;21.80;;
7444;SDS011;3764;48.126;11.594;2024-03-07T12:58:11;36.60;;;21.48;;
7444;SDS011;3764;48.126;11.594;2024-03-07T13:00:40;42.13;;;23.13;;
7444;SDS011;3764;48.126;11.594;2024-03-07T13:03:09;37.55;;;20.77;;
7444;SDS011;3764;48.126;11.594;2024-03-07T13:05:36;36.85;;;22.05;;
7444;SDS011;3764;48.126;11.594;2024-03-07T13:08:05;34.80;;;20.92;;
7444;SDS011;3764;48.126;11.594;2024-03-07T13:10:37;40.03;;;22.30;;
7444;SDS011;3764;48.126;11.594;2024-03-07T13:13:04;36.33;;;22.20;;
7444;SDS011;3764;48.126;11.594;2024-03-07T13:15:32;37.92;;;21.33;;
7444;SDS011;3764;48.126;11.594;2024-03-07T13:18:04;45.08;;;21.65;;
7444;SDS011;3764;48.126;11.594;2024-03-07T13:20:32;40.80;;;23.48;;
7444;SDS011;3764;48.126;11.594;2024-03-07T13:22:59;35.40;;;20.08;;
7444;SDS011;3764;48.126;11.594;2024-03-07T13:25:28;39.25;;;21.63;;
7444;SDS011;3764;48.126;11.594;2024-03-07T13:27:59;38.42;;;21.55;;
7444;SDS011;3764;48.126;11.594;2024-03-07T13:30:29;35.08;;;21.30;;
7444;SDS011;3764;48.126;11.594;2024-03-07T13:32:58;39.30;;;23.00;;
7444;SDS011;3764;48.126;11.594;2024-03-07T13:35:27;37.22;;;21.38;;
7444;SDS011;3764;48.126;11.594;2024-03-07T13:37:55;39.72;;;23.15;;
7444;SDS011;3764;48.126;11.594;2024-03-07T13:40:23;39.00;;;22.02;;
7444;SDS011;3764;48.126;11.594;2024-03-07T13:42:52;37.88;;;22.27;;
7444;SDS011;3764;48.126;11.594;2024-03-07T13:45:22;34.03;;;20.33;;
7444;SDS011;3764;48.126;11.594;2024-03-07T13:47:52;43.05;;;22.85;;
7444;SDS011;3764;48.126;11.594;2024-03-07T13:50:20;41.67;;;24.50;;
7444;SDS011;3764;48.126;11.594;2024-03-07T13:52:51;31.63;;;20.85;;
7444;SDS011;3764;48.126;11.594;2024-03-07T13:55:50;30.08;;;20.92;;
7444;SDS011;3764;48.126;11.594;2024-03-07T13:58:28;32.42;;;19.15;;
7444;SDS011;3764;48.126;11.594;2024-03-07T14:01:14;32.47;;;20.80;;
7444;SDS011;3764;48.126;11.594;2024-03-07T14:03:59;29.05;;;18.05;;
7444;SDS011;3764;48.126;11.594;2024-03-07T14:06:48;30.75;;;18.27;;
7444;SDS011;3764;48.126;11.594;2024-03-07T14:09:30;30.60;;;19.25;;
7444;SDS011;3764;48.126;11.594;2024-03-07T14:12:20;35.15;;;20.10;;
7444;SDS011;3764;48.126;11.594;2024-03-07T14:15:31;33.30;;;18.33;;
7444;SDS011;3764;48.126;11.594;2024-03-07T14:21:45;36.55;;;19.00;;
7444;SDS011;3764;48.126;11.594;2024-03-07T14:27:23;36.60;;;22.42;;
7444;SDS011;3764;48.126;11.594;2024-03-07T14:30:00;37.70;;;21.85;;
7444;SDS011;3764;48.126;11.594;2024-03-07T14:32:48;35.17;;;22.70;;
7444;SDS011;3764;48.126;11.594;2024-03-07T14:35:22;32.60;;;21.38;;
7444;SDS011;3764;48.126;11.594;2024-03-07T14:37:55;36.03;;;22.00;;
7444;SDS011;3764;48.126;11.594;2024-03-07T14:40:30;39.80;;;24.88;;
7444;SDS011;3764;48.126;11.594;2024-03-07T14:43:00;34.42;;;21.50;;
7444;SDS011;3764;48.126;11.594;2024-03-07T14:45:34;36.08;;;21.88;;
7444;SDS011;3764;48.126;11.594;2024-03-07T14:48:04;36.20;;;21.83;;
7444;SDS011;3764;48.126;11.594;2024-03-07T14:50:35;34.88;;;21.35;;
7444;SDS011;3764;48.126;11.594;2024-03-07T14:53:04;36.20;;;22.58;;
7444;SDS011;3764;48.126;11.594;2024-03-07T14:55:31;38.95;;;23.40;;